createdAt,value
2022-11-05T00:00:43.371Z,7.79
2022-11-05T00:01:45.148Z,7.79
2022-11-05T00:02:46.824Z,7.79
2022-11-05T00:03:48.659Z,7.78
2022-11-05T00:04:50.306Z,7.78
2022-11-05T00:05:52.044Z,7.78
2022-11-05T00:06:53.773Z,7.77
2022-11-05T00:07:55.510Z,7.77
2022-11-05T00:08:57.252Z,7.76
2022-11-05T00:09:58.980Z,7.76
2022-11-05T00:11:00.705Z,7.77
2022-11-05T00:12:02.434Z,7.76
2022-11-05T00:13:04.181Z,7.75
2022-11-05T00:14:05.929Z,7.75
2022-11-05T00:15:07.638Z,7.74
2022-11-05T00:16:09.376Z,7.73
2022-11-05T00:17:11.125Z,7.73
2022-11-05T00:18:12.846Z,7.72
2022-11-05T00:19:14.594Z,7.72
2022-11-05T00:20:16.310Z,7.72
2022-11-05T00:21:18.062Z,7.71
2022-11-05T00:22:19.787Z,7.71
2022-11-05T00:23:21.531Z,7.71
2022-11-05T00:24:24.357Z,7.71
2022-11-05T00:25:25.007Z,7.71
2022-11-05T00:26:26.804Z,7.71
2022-11-05T00:27:28.467Z,7.71
2022-11-05T00:28:30.186Z,7.71
2022-11-05T00:29:31.922Z,7.71
2022-11-05T00:30:33.659Z,7.7
2022-11-05T00:31:35.406Z,7.71
2022-11-05T00:32:37.138Z,7.72
2022-11-05T00:33:38.862Z,7.71
2022-11-05T00:34:40.626Z,7.71
2022-11-05T00:35:42.346Z,7.72
2022-11-05T00:36:44.079Z,7.71
2022-11-05T00:37:49.795Z,7.71
2022-11-05T00:38:47.569Z,7.71
2022-11-05T00:39:49.292Z,7.71
2022-11-05T00:40:51.016Z,7.72
2022-11-05T00:41:52.752Z,7.72
2022-11-05T00:42:54.483Z,7.71
2022-11-05T00:43:56.239Z,7.72
2022-11-05T00:44:57.952Z,7.72
2022-11-05T00:45:59.700Z,7.73
2022-11-05T00:47:01.405Z,7.72
2022-11-05T00:48:03.152Z,7.73
2022-11-05T00:49:04.882Z,7.73
2022-11-05T00:50:06.613Z,7.72
2022-11-05T00:51:08.364Z,7.73
2022-11-05T00:52:10.094Z,7.73
2022-11-05T00:53:12.071Z,7.73
2022-11-05T00:54:13.571Z,7.73
2022-11-05T00:55:15.298Z,7.73
2022-11-05T00:56:17.025Z,7.72
2022-11-05T00:57:18.754Z,7.73
2022-11-05T00:58:20.493Z,7.73
2022-11-05T00:59:22.244Z,7.73
2022-11-05T01:00:23.967Z,7.73
2022-11-05T01:01:25.816Z,7.73
2022-11-05T01:02:27.566Z,7.73
2022-11-05T01:03:29.161Z,7.74
2022-11-05T01:04:30.902Z,7.72
2022-11-05T01:05:32.639Z,7.73
2022-11-05T01:06:34.363Z,7.72
2022-11-05T01:07:36.120Z,7.71
2022-11-05T01:08:37.849Z,7.72
2022-11-05T01:09:39.577Z,7.71
2022-11-05T01:10:41.318Z,7.71
2022-11-05T01:11:43.054Z,7.69
2022-11-05T01:12:44.788Z,7.7
2022-11-05T01:13:46.516Z,7.7
2022-11-05T01:14:48.251Z,7.69
2022-11-05T01:15:50.004Z,7.68
2022-11-05T01:16:51.716Z,7.68
2022-11-05T01:17:53.474Z,7.68
2022-11-05T01:18:55.191Z,7.67
2022-11-05T01:19:56.933Z,7.67
2022-11-05T01:20:58.652Z,7.66
2022-11-05T01:22:00.381Z,7.67
2022-11-05T01:23:02.131Z,7.67
2022-11-05T01:24:03.877Z,7.67
2022-11-05T01:25:05.581Z,7.67
2022-11-05T01:26:07.326Z,7.67
2022-11-05T01:27:09.071Z,7.67
2022-11-05T01:28:10.799Z,7.68
2022-11-05T01:29:12.597Z,7.69
2022-11-05T01:30:14.266Z,7.7
2022-11-05T01:31:16.003Z,7.7
2022-11-05T01:32:17.739Z,7.7
2022-11-05T01:33:19.537Z,7.71
2022-11-05T01:34:21.230Z,7.71
2022-11-05T01:35:22.935Z,7.73
2022-11-05T01:36:24.683Z,7.74
2022-11-05T01:37:26.452Z,7.74
2022-11-05T01:38:28.176Z,7.75
2022-11-05T01:39:29.878Z,7.76
2022-11-05T01:40:31.615Z,7.76
2022-11-05T01:41:33.351Z,7.77
2022-11-05T01:42:35.079Z,7.79
2022-11-05T01:43:36.808Z,7.79
2022-11-05T01:44:38.551Z,7.81
2022-11-05T01:45:40.283Z,7.81
2022-11-05T01:46:42.010Z,7.82
2022-11-05T01:47:43.750Z,7.82
2022-11-05T01:48:45.486Z,7.83
2022-11-05T01:49:47.211Z,7.84
2022-11-05T01:50:48.961Z,7.85
2022-11-05T01:51:50.671Z,7.85
2022-11-05T01:52:52.405Z,7.86
2022-11-05T01:53:54.141Z,7.86
2022-11-05T01:54:55.880Z,7.86
2022-11-05T01:55:57.594Z,7.86
2022-11-05T01:56:59.318Z,7.88
2022-11-05T01:58:01.043Z,7.87
2022-11-05T01:59:02.778Z,7.88
2022-11-05T02:00:04.503Z,7.88
2022-11-05T02:01:06.261Z,7.9
2022-11-05T02:02:09.568Z,7.9
2022-11-05T02:03:10.291Z,7.91
2022-11-05T02:04:11.447Z,7.91
2022-11-05T02:05:13.141Z,7.92
2022-11-05T02:06:14.879Z,7.92
2022-11-05T02:07:16.606Z,7.92
2022-11-05T02:08:18.325Z,7.94
2022-11-05T02:09:20.073Z,7.93
2022-11-05T02:10:21.779Z,7.94
2022-11-05T02:11:23.508Z,7.94
2022-11-05T02:12:25.244Z,7.95
2022-11-05T02:13:26.967Z,7.96
2022-11-05T02:14:28.723Z,7.96
2022-11-05T02:15:30.428Z,7.96
2022-11-05T02:16:32.173Z,7.96
2022-11-05T02:17:33.896Z,7.97
2022-11-05T02:18:35.638Z,7.96
2022-11-05T02:19:37.380Z,7.97
2022-11-05T02:20:39.118Z,7.98
2022-11-05T02:21:40.865Z,7.97
2022-11-05T02:22:42.570Z,7.96
2022-11-05T02:23:44.293Z,7.97
2022-11-05T02:24:46.031Z,7.97
2022-11-05T02:25:47.761Z,7.97
2022-11-05T02:26:49.532Z,7.98
2022-11-05T02:27:51.243Z,7.97
2022-11-05T02:28:52.977Z,7.98
2022-11-05T02:29:54.714Z,7.97
2022-11-05T02:30:56.444Z,7.98
2022-11-05T02:31:58.182Z,7.95
2022-11-05T02:32:59.906Z,7.96
2022-11-05T02:34:01.644Z,7.94
2022-11-05T02:35:03.372Z,7.93
2022-11-05T02:36:05.109Z,7.92
2022-11-05T02:37:06.973Z,7.9
2022-11-05T02:38:08.604Z,7.87
2022-11-05T02:39:10.311Z,7.85
2022-11-05T02:40:12.041Z,7.84
2022-11-05T02:41:13.777Z,7.81
2022-11-05T02:42:15.510Z,7.77
2022-11-05T02:43:17.247Z,7.73
2022-11-05T02:44:19.002Z,7.71
2022-11-05T02:45:20.749Z,7.67
2022-11-05T02:46:22.435Z,7.64
2022-11-05T02:47:24.171Z,7.6
2022-11-05T02:48:25.917Z,7.57
2022-11-05T02:49:27.663Z,7.54
2022-11-05T02:50:29.401Z,7.51
2022-11-05T02:51:31.121Z,7.48
2022-11-05T02:52:32.853Z,7.45
2022-11-05T02:53:34.597Z,7.42
2022-11-05T02:54:36.338Z,7.38
2022-11-05T02:55:38.062Z,7.35
2022-11-05T02:56:39.801Z,7.32
2022-11-05T02:57:41.531Z,7.29
2022-11-05T02:58:43.278Z,7.27
2022-11-05T02:59:44.995Z,7.25
2022-11-05T03:00:46.739Z,7.21
2022-11-05T03:01:48.660Z,7.19
2022-11-05T03:02:50.399Z,7.15
2022-11-05T03:03:51.957Z,7.14
2022-11-05T03:04:53.662Z,7.11
2022-11-05T03:05:55.418Z,7.09
2022-11-05T03:06:57.135Z,7.07
2022-11-05T03:07:58.908Z,7.04
2022-11-05T03:09:00.595Z,7.02
2022-11-05T03:10:02.356Z,6.99
2022-11-05T03:11:04.077Z,6.97
2022-11-05T03:12:05.817Z,6.96
2022-11-05T03:13:07.815Z,6.94
2022-11-05T03:14:09.292Z,6.93
2022-11-05T03:15:11.013Z,6.91
2022-11-05T03:16:12.775Z,6.9
2022-11-05T03:17:14.465Z,6.88
2022-11-05T03:18:16.215Z,6.87
2022-11-05T03:19:17.960Z,6.86
2022-11-05T03:20:19.683Z,6.84
2022-11-05T03:21:21.430Z,6.83
2022-11-05T03:22:23.151Z,6.81
2022-11-05T03:23:24.886Z,6.8
2022-11-05T03:24:26.631Z,6.79
2022-11-05T03:25:28.352Z,6.78
2022-11-05T03:26:30.087Z,6.77
2022-11-05T03:27:31.831Z,6.77
2022-11-05T03:28:33.549Z,6.76
2022-11-05T03:29:35.295Z,6.76
2022-11-05T03:30:37.015Z,6.74
2022-11-05T03:31:38.784Z,6.74
2022-11-05T03:32:40.487Z,6.74
2022-11-05T03:33:42.223Z,6.73
2022-11-05T03:34:43.955Z,6.73
2022-11-05T03:35:45.700Z,6.72
2022-11-05T03:36:47.435Z,6.73
2022-11-05T03:37:49.169Z,6.73
2022-11-05T03:38:50.907Z,6.72
2022-11-05T03:39:52.651Z,6.73
2022-11-05T03:40:54.388Z,6.72
2022-11-05T03:41:56.095Z,6.72
2022-11-05T03:42:57.117Z,6.72
2022-11-05T03:43:59.587Z,6.72
2022-11-05T03:45:01.310Z,6.72
2022-11-05T03:46:03.044Z,6.71
2022-11-05T03:47:04.776Z,6.71
2022-11-05T03:48:06.535Z,6.72
2022-11-05T03:49:08.344Z,6.71
2022-11-05T03:50:09.979Z,6.71
2022-11-05T03:51:11.723Z,6.7
2022-11-05T03:52:13.469Z,6.7
2022-11-05T03:53:15.196Z,6.69
2022-11-05T03:54:16.943Z,6.71
2022-11-05T03:55:18.657Z,6.71
2022-11-05T03:56:20.382Z,6.71
2022-11-05T03:57:22.118Z,6.71
2022-11-05T03:58:23.860Z,6.72
2022-11-05T03:59:25.603Z,6.73
2022-11-05T04:00:27.305Z,6.73
2022-11-05T04:01:29.166Z,6.73
2022-11-05T04:02:30.925Z,6.73
2022-11-05T04:03:32.511Z,6.74
2022-11-05T04:04:34.262Z,6.74
2022-11-05T04:05:35.982Z,6.74
2022-11-05T04:06:37.698Z,6.74
2022-11-05T04:07:39.430Z,6.74
2022-11-05T04:08:41.171Z,6.74
2022-11-05T04:09:42.909Z,6.74
2022-11-05T04:10:44.651Z,6.74
2022-11-05T04:11:46.406Z,6.74
2022-11-05T04:12:48.089Z,6.74
2022-11-05T04:13:49.820Z,6.73
2022-11-05T04:14:51.550Z,6.73
2022-11-05T04:15:53.272Z,6.72
2022-11-05T04:16:55.034Z,6.72
2022-11-05T04:17:56.753Z,6.72
2022-11-05T04:18:58.492Z,6.71
2022-11-05T04:20:00.215Z,6.71
2022-11-05T04:21:01.971Z,6.71
2022-11-05T04:22:03.695Z,6.71
2022-11-05T04:23:05.426Z,6.71
2022-11-05T04:24:07.196Z,6.7
2022-11-05T04:25:08.899Z,6.7
2022-11-05T04:26:10.631Z,6.7
2022-11-05T04:27:12.353Z,6.7
2022-11-05T04:28:14.102Z,6.69
2022-11-05T04:29:15.829Z,6.69
2022-11-05T04:30:17.617Z,6.7
2022-11-05T04:31:19.296Z,6.7
2022-11-05T04:32:21.034Z,6.7
2022-11-05T04:33:22.756Z,6.69
2022-11-05T04:34:24.526Z,6.69
2022-11-05T04:35:26.233Z,6.69
2022-11-05T04:36:27.961Z,6.68
2022-11-05T04:37:29.686Z,6.68
2022-11-05T04:38:31.422Z,6.68
2022-11-05T04:39:33.189Z,6.68
2022-11-05T04:40:34.900Z,6.67
2022-11-05T04:41:36.635Z,6.66
2022-11-05T04:42:38.370Z,6.67
2022-11-05T04:43:40.113Z,6.66
2022-11-05T04:44:41.838Z,6.66
2022-11-05T04:45:43.576Z,6.66
2022-11-05T04:46:45.296Z,6.66
2022-11-05T04:47:47.041Z,6.66
2022-11-05T04:48:48.781Z,6.66
2022-11-05T04:49:50.502Z,6.65
2022-11-05T04:50:52.244Z,6.66
2022-11-05T04:51:53.975Z,6.65
2022-11-05T04:52:55.704Z,6.65
2022-11-05T04:53:57.443Z,6.64
2022-11-05T04:54:59.175Z,6.64
2022-11-05T04:56:00.905Z,6.63
2022-11-05T04:57:02.650Z,6.63
2022-11-05T04:58:04.384Z,6.62
2022-11-05T04:59:06.122Z,6.62
2022-11-05T05:00:07.847Z,6.61
2022-11-05T05:01:09.650Z,6.6
2022-11-05T05:02:11.351Z,6.6
2022-11-05T05:03:13.519Z,6.59
2022-11-05T05:04:14.798Z,6.58
2022-11-05T05:05:16.520Z,6.58
2022-11-05T05:06:18.253Z,6.57
2022-11-05T05:07:19.997Z,6.56
2022-11-05T05:08:21.727Z,6.55
2022-11-05T05:09:23.456Z,6.55
2022-11-05T05:10:25.172Z,6.55
2022-11-05T05:11:26.944Z,6.54
2022-11-05T05:12:28.653Z,6.55
2022-11-05T05:13:30.387Z,6.54
2022-11-05T05:14:32.148Z,6.54
2022-11-05T05:15:33.861Z,6.54
2022-11-05T05:16:35.582Z,6.53
2022-11-05T05:17:37.319Z,6.54
2022-11-05T05:18:45.065Z,6.53
2022-11-05T05:19:40.777Z,6.53
2022-11-05T05:20:42.512Z,6.54
2022-11-05T05:21:44.248Z,6.54
2022-11-05T05:22:45.992Z,6.54
2022-11-05T05:23:47.758Z,6.53
2022-11-05T05:24:52.716Z,6.53
2022-11-05T05:25:51.196Z,6.54
2022-11-05T05:26:52.924Z,6.53
2022-11-05T05:27:54.660Z,6.54
2022-11-05T05:28:56.397Z,6.54
2022-11-05T05:29:58.124Z,6.53
2022-11-05T05:30:59.846Z,6.54
2022-11-05T05:32:01.604Z,6.55
2022-11-05T05:33:03.333Z,6.54
2022-11-05T05:34:05.060Z,6.54
2022-11-05T05:35:06.784Z,6.54
2022-11-05T05:36:11.279Z,6.54
2022-11-05T05:37:10.268Z,6.55
2022-11-05T05:38:12.000Z,6.55
2022-11-05T05:39:13.742Z,6.55
2022-11-05T05:40:15.467Z,6.55
2022-11-05T05:41:17.210Z,6.55
2022-11-05T05:42:18.967Z,6.56
2022-11-05T05:43:20.677Z,6.55
2022-11-05T05:44:22.435Z,6.54
2022-11-05T05:45:24.140Z,6.54
2022-11-05T05:46:25.876Z,6.54
2022-11-05T05:47:27.614Z,6.54
2022-11-05T05:48:29.347Z,6.54
2022-11-05T05:49:31.081Z,6.54
2022-11-05T05:50:32.798Z,6.54
2022-11-05T05:51:34.544Z,6.55
2022-11-05T05:52:36.277Z,6.55
2022-11-05T05:53:38.014Z,6.54
2022-11-05T05:54:42.485Z,6.55
2022-11-05T05:55:41.479Z,6.55
2022-11-05T05:56:43.225Z,6.55
2022-11-05T05:57:44.993Z,6.55
2022-11-05T05:58:46.701Z,6.55
2022-11-05T05:59:48.422Z,6.55
2022-11-05T06:00:50.165Z,6.55
2022-11-05T06:01:52.003Z,6.56
2022-11-05T06:02:53.684Z,6.55
2022-11-05T06:03:55.349Z,6.56
2022-11-05T06:04:57.085Z,6.55
2022-11-05T06:05:58.823Z,6.55
2022-11-05T06:07:00.569Z,6.56
2022-11-05T06:08:02.301Z,6.56
2022-11-05T06:09:04.032Z,6.56
2022-11-05T06:10:05.770Z,6.56
2022-11-05T06:11:07.582Z,6.57
2022-11-05T06:12:09.246Z,6.57
2022-11-05T06:13:11.339Z,6.57
2022-11-05T06:14:12.709Z,6.58
2022-11-05T06:15:14.437Z,6.57
2022-11-05T06:16:16.162Z,6.59
2022-11-05T06:17:17.898Z,6.6
2022-11-05T06:18:19.639Z,6.6
2022-11-05T06:19:21.387Z,6.6
2022-11-05T06:20:23.106Z,6.61
2022-11-05T06:21:24.841Z,6.6
2022-11-05T06:22:26.577Z,6.62
2022-11-05T06:23:28.316Z,6.62
2022-11-05T06:24:30.063Z,6.62
2022-11-05T06:25:33.277Z,6.62
2022-11-05T06:26:33.512Z,6.62
2022-11-05T06:27:35.246Z,6.62
2022-11-05T06:28:36.979Z,6.62
2022-11-05T06:29:38.720Z,6.63
2022-11-05T06:30:40.452Z,6.63
2022-11-05T06:31:42.187Z,6.64
2022-11-05T06:32:43.916Z,6.64
2022-11-05T06:33:45.662Z,6.63
2022-11-05T06:34:47.398Z,6.63
2022-11-05T06:35:49.121Z,6.63
2022-11-05T06:36:50.851Z,6.63
2022-11-05T06:37:52.588Z,6.63
2022-11-05T06:38:54.326Z,6.64
2022-11-05T06:39:56.051Z,6.64
2022-11-05T06:40:57.785Z,6.65
2022-11-05T06:42:17.922Z,6.63
2022-11-05T06:43:01.259Z,6.63
2022-11-05T06:44:02.990Z,6.63
2022-11-05T06:45:04.725Z,6.63
2022-11-05T06:46:06.453Z,6.62
2022-11-05T06:47:08.188Z,6.62
2022-11-05T06:48:09.929Z,6.62
2022-11-05T06:49:11.675Z,6.61
2022-11-05T06:50:13.398Z,6.6
2022-11-05T06:51:15.123Z,6.6
2022-11-05T06:52:16.866Z,6.59
2022-11-05T06:53:18.596Z,6.59
2022-11-05T06:54:20.354Z,6.58
2022-11-05T06:55:22.055Z,6.56
2022-11-05T06:56:23.798Z,6.56
2022-11-05T06:57:25.534Z,6.55
2022-11-05T06:58:27.280Z,6.55
2022-11-05T06:59:29.008Z,6.53
2022-11-05T07:00:30.836Z,6.52
2022-11-05T07:01:32.727Z,6.52
2022-11-05T07:02:34.208Z,6.51
2022-11-05T07:03:35.926Z,6.5
2022-11-05T07:04:37.690Z,6.5
2022-11-05T07:05:39.402Z,6.49
2022-11-05T07:06:41.123Z,6.49
2022-11-05T07:07:42.858Z,6.48
2022-11-05T07:08:44.603Z,6.48
2022-11-05T07:09:46.326Z,6.47
2022-11-05T07:10:48.068Z,6.48
2022-11-05T07:11:49.814Z,6.47
2022-11-05T07:12:51.542Z,6.47
2022-11-05T07:13:53.280Z,6.48
2022-11-05T07:14:55.009Z,6.47
2022-11-05T07:15:56.740Z,6.47
2022-11-05T07:16:58.477Z,6.48
2022-11-05T07:18:00.211Z,6.48
2022-11-05T07:19:01.933Z,6.49
2022-11-05T07:20:03.702Z,6.49
2022-11-05T07:21:05.412Z,6.49
2022-11-05T07:22:07.135Z,6.5
2022-11-05T07:23:09.264Z,6.5
2022-11-05T07:24:10.618Z,6.52
2022-11-05T07:25:12.346Z,6.51
2022-11-05T07:26:14.080Z,6.52
2022-11-05T07:27:15.817Z,6.54
2022-11-05T07:28:17.546Z,6.54
2022-11-05T07:29:19.302Z,6.55
2022-11-05T07:30:21.019Z,6.58
2022-11-05T07:31:22.753Z,6.6
2022-11-05T07:32:24.537Z,6.65
2022-11-05T07:33:26.215Z,6.69
2022-11-05T07:34:27.966Z,6.7
2022-11-05T07:35:29.690Z,6.71
2022-11-05T07:36:31.432Z,6.71
2022-11-05T07:37:33.165Z,6.73
2022-11-05T07:38:40.043Z,6.74
2022-11-05T07:39:41.787Z,6.74
2022-11-05T07:40:43.515Z,6.75
2022-11-05T07:41:45.255Z,6.75
2022-11-05T07:42:46.988Z,6.74
2022-11-05T07:43:48.718Z,6.74
2022-11-05T07:44:50.455Z,6.75
2022-11-05T07:45:53.534Z,6.78
2022-11-05T07:47:17.019Z,6.8
2022-11-05T07:48:18.761Z,6.8
2022-11-05T07:49:20.540Z,6.82
2022-11-05T07:50:24.811Z,6.83
2022-11-05T07:51:25.159Z,6.83
2022-11-05T07:52:25.764Z,6.84
2022-11-05T07:53:27.476Z,6.86
2022-11-05T07:55:27.986Z,6.95
2022-11-05T07:57:24.992Z,7
2022-11-05T07:58:27.900Z,7.03
2022-11-05T07:59:34.703Z,7.05
2022-11-05T08:00:36.510Z,7.08
2022-11-05T08:01:38.335Z,7.09
2022-11-05T08:02:40.114Z,7.11
2022-11-05T08:03:44.508Z,7.13
2022-11-05T08:04:46.185Z,7.13
2022-11-05T08:05:47.886Z,7.14
2022-11-05T08:06:49.615Z,7.15
2022-11-05T08:07:51.353Z,7.14
2022-11-05T08:08:53.107Z,7.15
2022-11-05T08:09:54.836Z,7.15
2022-11-05T08:11:11.139Z,7.15
2022-11-05T08:12:36.365Z,7.14
2022-11-05T08:13:41.040Z,7.13
2022-11-05T08:14:53.026Z,7.13
2022-11-05T08:15:59.894Z,7.12
2022-11-05T08:17:01.633Z,7.12
2022-11-05T08:18:03.408Z,7.12
2022-11-05T08:19:05.097Z,7.11
2022-11-05T08:20:06.830Z,7.1
2022-11-05T08:21:22.360Z,7.1
2022-11-05T08:23:02.779Z,7.11
2022-11-05T08:24:12.405Z,7.11
2022-11-05T08:25:17.404Z,7.11
2022-11-05T08:26:19.085Z,7.11
2022-11-05T08:27:20.810Z,7.1
2022-11-05T08:28:22.556Z,7.1
2022-11-05T08:29:24.304Z,7.1
2022-11-05T08:30:26.028Z,7.13
2022-11-05T08:31:27.792Z,7.2
2022-11-05T08:32:29.493Z,7.31
2022-11-05T08:33:31.226Z,7.43
2022-11-05T08:34:32.980Z,7.5
2022-11-05T08:35:34.706Z,7.53
2022-11-05T08:36:36.436Z,7.58
2022-11-05T08:37:38.167Z,7.59
2022-11-05T08:38:39.892Z,7.6
2022-11-05T08:39:41.640Z,7.62
2022-11-05T08:40:43.391Z,7.67
2022-11-05T08:42:17.947Z,7.73
2022-11-05T08:43:40.970Z,7.81
2022-11-05T08:44:42.748Z,7.88
2022-11-05T08:45:44.489Z,7.9
2022-11-05T08:46:46.209Z,7.91
2022-11-05T08:47:47.959Z,7.91
2022-11-05T08:48:49.664Z,7.9
2022-11-05T08:49:51.422Z,7.9
2022-11-05T08:50:53.152Z,8.01
2022-11-05T08:51:54.890Z,8.08
2022-11-05T08:52:56.630Z,8.1
2022-11-05T08:55:55.700Z,8.14
2022-11-05T08:57:54.488Z,8.24
2022-11-05T08:58:56.324Z,8.26
2022-11-05T08:59:58.071Z,8.3
2022-11-05T09:01:04.803Z,8.31
2022-11-05T09:02:25.430Z,8.31
2022-11-05T09:03:29.079Z,8.31
2022-11-05T09:04:55.803Z,8.27
2022-11-05T09:05:58.292Z,8.24
2022-11-05T09:07:00.094Z,8.19
2022-11-05T09:08:01.880Z,8.15
2022-11-05T09:09:03.558Z,8.1
2022-11-05T09:10:05.284Z,8.07
2022-11-05T09:11:07.024Z,8.02
2022-11-05T09:12:12.991Z,7.98
2022-11-05T09:13:16.588Z,7.98
2022-11-05T09:14:38.262Z,7.98
2022-11-05T09:15:42.738Z,7.94
2022-11-05T09:16:44.505Z,7.93
2022-11-05T09:17:46.225Z,7.91
2022-11-05T09:18:47.973Z,7.89
2022-11-05T09:19:49.694Z,7.88
2022-11-05T09:20:51.430Z,7.85
2022-11-05T09:21:53.164Z,7.84
2022-11-05T09:22:54.887Z,7.82
2022-11-05T09:23:56.645Z,7.8
2022-11-05T09:24:58.400Z,7.77
2022-11-05T09:26:00.098Z,7.76
2022-11-05T09:30:07.015Z,7.77
2022-11-05T09:31:09.732Z,7.79
2022-11-05T09:32:11.440Z,7.78
2022-11-05T09:33:16.156Z,7.78
2022-11-05T09:35:44.553Z,7.79
2022-11-05T09:39:35.295Z,8.07
2022-11-05T09:40:37.767Z,8.27
2022-11-05T09:42:00.175Z,8.49
2022-11-05T09:43:32.149Z,8.72
2022-11-05T09:45:02.360Z,8.91
2022-11-05T09:46:03.596Z,9.07
2022-11-05T09:47:06.263Z,9.22
2022-11-05T09:48:08.002Z,9.32
2022-11-05T09:49:09.732Z,9.26
2022-11-05T09:50:11.593Z,9.24
2022-11-05T09:52:40.680Z,9.14
2022-11-05T09:53:42.414Z,9.05
2022-11-05T09:54:44.165Z,9.1
2022-11-05T09:55:45.900Z,9.01
2022-11-05T09:56:47.610Z,9.01
2022-11-05T09:57:49.350Z,8.95
2022-11-05T09:58:51.266Z,8.92
2022-11-05T10:00:03.187Z,8.97
2022-11-05T10:01:05.043Z,8.95
2022-11-05T10:02:15.209Z,8.88
2022-11-05T10:03:16.841Z,8.83
2022-11-05T10:04:18.580Z,8.94
2022-11-05T10:05:20.435Z,9.01
2022-11-05T10:06:22.021Z,9.09
2022-11-05T10:08:52.024Z,9.31
2022-11-05T10:09:53.769Z,9.4
2022-11-05T10:10:56.288Z,9.49
2022-11-05T10:12:14.569Z,9.61
2022-11-05T10:14:08.052Z,9.79
2022-11-05T10:16:37.638Z,10.15
2022-11-05T10:17:39.525Z,10.28
2022-11-05T10:18:41.109Z,10.35
2022-11-05T10:19:42.832Z,10.44
2022-11-05T10:20:44.555Z,10.6
2022-11-05T10:22:04.839Z,10.74
2022-11-05T10:22:49.651Z,10.94
2022-11-05T10:23:49.765Z,11.09
2022-11-05T10:24:51.496Z,11.31
2022-11-05T10:25:53.281Z,11.55
2022-11-05T10:26:54.967Z,11.75
2022-11-05T10:27:56.715Z,11.97
2022-11-05T10:28:58.441Z,12.11
2022-11-05T10:30:00.170Z,12.21
2022-11-05T10:31:01.931Z,12.4
2022-11-05T10:32:03.656Z,12.56
2022-11-05T10:33:05.386Z,12.74
2022-11-05T10:34:07.129Z,12.86
2022-11-05T10:35:08.862Z,12.97
2022-11-05T10:36:10.619Z,12.95
2022-11-05T10:37:12.325Z,12.9
2022-11-05T10:38:14.063Z,12.93
2022-11-05T10:39:15.791Z,12.9
2022-11-05T10:40:17.573Z,12.83
2022-11-05T10:41:19.285Z,12.7
2022-11-05T10:44:58.441Z,12.33
2022-11-05T10:46:00.183Z,12.25
2022-11-05T10:47:01.911Z,12.18
2022-11-05T10:48:03.651Z,12.15
2022-11-05T10:49:05.380Z,12.11
2022-11-05T10:50:07.113Z,12.03
2022-11-05T10:51:08.880Z,12.02
2022-11-05T10:52:09.620Z,11.96
2022-11-05T10:53:12.505Z,11.88
2022-11-05T10:54:13.924Z,11.74
2022-11-05T10:55:15.652Z,11.68
2022-11-05T10:56:17.468Z,11.52
2022-11-05T10:57:24.566Z,11.48
2022-11-05T11:00:35.848Z,11.15
2022-11-05T11:03:06.849Z,10.84
2022-11-05T11:04:08.581Z,10.71
2022-11-05T11:05:10.340Z,10.57
2022-11-05T11:07:56.598Z,10.38
2022-11-05T11:08:58.365Z,10.29
2022-11-05T11:10:00.146Z,10.19
2022-11-05T11:11:28.584Z,10.13
2022-11-05T11:12:30.333Z,10.05
2022-11-05T11:13:32.046Z,10.08
2022-11-05T11:14:33.796Z,10.12
2022-11-05T11:15:35.509Z,10.17
2022-11-05T11:16:37.257Z,10.21
2022-11-05T11:17:38.999Z,10.28
2022-11-05T11:18:40.708Z,10.32
2022-11-05T11:19:42.445Z,10.3
2022-11-05T11:20:44.196Z,10.33
2022-11-05T11:21:45.924Z,10.32
2022-11-05T11:22:47.668Z,10.33
2022-11-05T11:23:49.381Z,10.25
2022-11-05T11:24:51.126Z,10.19
2022-11-05T11:25:52.867Z,10.12
2022-11-05T11:26:54.658Z,10.08
2022-11-05T11:27:56.357Z,10.01
2022-11-05T11:28:58.054Z,9.97
2022-11-05T11:29:59.786Z,9.94
2022-11-05T11:31:01.530Z,9.87
2022-11-05T11:32:03.249Z,9.81
2022-11-05T11:33:04.990Z,9.79
2022-11-05T11:34:06.714Z,9.79
2022-11-05T11:35:08.460Z,9.78
2022-11-05T11:36:10.172Z,9.8
2022-11-05T11:37:16.678Z,9.86
2022-11-05T11:38:13.667Z,9.93
2022-11-05T11:39:15.395Z,9.95
2022-11-05T11:40:17.265Z,9.99
2022-11-05T11:41:18.845Z,10
2022-11-05T11:42:20.614Z,10.01
2022-11-05T11:43:22.328Z,10.02
2022-11-05T11:44:24.057Z,10.08
2022-11-05T11:45:25.797Z,10.08
2022-11-05T11:46:27.529Z,10.08
2022-11-05T11:47:29.275Z,10.12
2022-11-05T11:48:31.005Z,10.19
2022-11-05T11:49:32.726Z,10.22
2022-11-05T11:50:34.464Z,10.24
2022-11-05T11:51:36.206Z,10.23
2022-11-05T11:52:37.924Z,10.23
2022-11-05T11:53:39.662Z,10.21
2022-11-05T11:54:42.570Z,10.2
2022-11-05T11:55:45.837Z,10.2
2022-11-05T11:56:47.598Z,10.18
2022-11-05T11:57:49.302Z,10.17
2022-11-05T11:58:51.059Z,10.18
2022-11-05T12:00:11.665Z,10.18
2022-11-05T12:01:08.798Z,10.19
2022-11-05T12:02:11.852Z,10.25
2022-11-05T12:03:13.721Z,10.28
2022-11-05T12:04:13.571Z,10.31
2022-11-05T12:05:16.870Z,10.38
2022-11-05T12:06:18.611Z,10.43
2022-11-05T12:07:20.346Z,10.48
2022-11-05T12:08:22.077Z,10.53
2022-11-05T12:09:23.817Z,10.55
2022-11-05T12:10:25.524Z,10.59
2022-11-05T12:11:27.249Z,10.59
2022-11-05T12:12:29.040Z,10.57
2022-11-05T12:13:32.028Z,10.53
2022-11-05T12:14:32.485Z,10.48
2022-11-05T12:15:33.347Z,10.4
2022-11-05T12:16:35.933Z,10.32
2022-11-05T12:17:37.667Z,10.24
2022-11-05T12:18:39.395Z,10.17
2022-11-05T12:19:42.360Z,10.09
2022-11-05T12:20:42.870Z,10.02
2022-11-05T12:21:52.585Z,9.96
2022-11-05T12:22:46.334Z,9.88
2022-11-05T12:23:48.072Z,9.8
2022-11-05T12:24:49.807Z,9.69
2022-11-05T12:25:51.540Z,9.61
2022-11-05T12:26:53.277Z,9.56
2022-11-05T12:27:55.031Z,9.47
2022-11-05T12:29:17.811Z,9.43
2022-11-05T12:29:58.477Z,9.38
2022-11-05T12:31:00.192Z,9.35
2022-11-05T12:32:01.938Z,9.34
2022-11-05T12:33:03.748Z,9.32
2022-11-05T12:34:05.400Z,9.32
2022-11-05T12:35:07.131Z,9.33
2022-11-05T12:36:08.860Z,9.35
2022-11-05T12:37:10.593Z,9.35
2022-11-05T12:38:12.337Z,9.35
2022-11-05T12:39:14.074Z,9.36
2022-11-05T12:40:15.800Z,9.37
2022-11-05T12:41:17.526Z,9.38
2022-11-05T12:42:19.295Z,9.39
2022-11-05T12:43:21.020Z,9.37
2022-11-05T12:44:22.739Z,9.38
2022-11-05T12:45:24.454Z,9.4
2022-11-05T12:46:26.206Z,9.41
2022-11-05T12:47:27.914Z,9.44
2022-11-05T12:48:34.311Z,9.44
2022-11-05T12:49:31.391Z,9.47
2022-11-05T12:50:33.090Z,9.51
2022-11-05T12:51:34.824Z,9.55
2022-11-05T12:52:36.547Z,9.58
2022-11-05T12:53:39.485Z,9.61
2022-11-05T12:54:40.008Z,9.62
2022-11-05T12:55:45.618Z,9.65
2022-11-05T12:56:43.451Z,9.66
2022-11-05T12:57:45.230Z,9.68
2022-11-05T12:58:46.910Z,9.69
2022-11-05T12:59:48.642Z,9.69
2022-11-05T13:00:50.499Z,9.7
2022-11-05T13:01:52.234Z,9.68
2022-11-05T13:02:53.834Z,9.68
2022-11-05T13:03:55.552Z,9.67
2022-11-05T13:04:57.303Z,9.67
2022-11-05T13:06:04.538Z,9.66
2022-11-05T13:07:00.756Z,9.66
2022-11-05T13:08:02.500Z,9.65
2022-11-05T13:09:04.233Z,9.65
2022-11-05T13:10:06.038Z,9.65
2022-11-05T13:11:07.694Z,9.63
2022-11-05T13:12:09.442Z,9.62
2022-11-05T13:13:11.551Z,9.6
2022-11-05T13:14:12.896Z,9.58
2022-11-05T13:15:14.630Z,9.55
2022-11-05T13:16:16.365Z,9.53
2022-11-05T13:17:18.099Z,9.5
2022-11-05T13:18:19.831Z,9.47
2022-11-05T13:19:21.570Z,9.44
2022-11-05T13:20:23.321Z,9.41
2022-11-05T13:21:25.024Z,9.38
2022-11-05T13:22:26.978Z,9.33
2022-11-05T13:23:28.510Z,9.3
2022-11-05T13:24:30.239Z,9.25
2022-11-05T13:25:31.977Z,9.22
2022-11-05T13:26:33.697Z,9.16
2022-11-05T13:27:35.434Z,9.12
2022-11-05T13:28:37.154Z,9.04
2022-11-05T13:29:38.907Z,8.97
2022-11-05T13:30:40.640Z,8.88
2022-11-05T13:31:42.367Z,8.77
2022-11-05T13:32:44.112Z,8.68
2022-11-05T13:33:45.825Z,8.57
2022-11-05T13:34:47.570Z,8.48
2022-11-05T13:35:49.297Z,8.38
2022-11-05T13:36:51.030Z,8.28
2022-11-05T13:37:52.763Z,8.23
2022-11-05T13:38:54.503Z,8.15
2022-11-05T13:39:56.245Z,8.06
2022-11-05T13:40:57.967Z,8
2022-11-05T13:41:59.710Z,7.93
2022-11-05T13:43:01.430Z,7.88
2022-11-05T13:44:03.174Z,7.81
2022-11-05T13:45:04.921Z,7.77
2022-11-05T13:46:06.645Z,7.73
2022-11-05T13:47:08.383Z,7.7
2022-11-05T13:48:10.108Z,7.67
2022-11-05T13:49:11.841Z,7.65
2022-11-05T13:50:13.593Z,7.64
2022-11-05T13:51:15.286Z,7.63
2022-11-05T13:52:17.048Z,7.64
2022-11-05T13:53:18.781Z,7.64
2022-11-05T13:54:20.489Z,7.66
2022-11-05T13:55:22.256Z,7.68
2022-11-05T13:56:23.975Z,7.71
2022-11-05T13:57:25.709Z,7.73
2022-11-05T13:58:27.436Z,7.75
2022-11-05T13:59:29.178Z,7.76
2022-11-05T14:00:30.935Z,7.79
2022-11-05T14:01:32.850Z,7.81
2022-11-05T14:02:34.448Z,7.83
2022-11-05T14:03:36.113Z,7.86
2022-11-05T14:04:37.860Z,7.89
2022-11-05T14:05:39.576Z,7.92
2022-11-05T14:06:41.323Z,7.94
2022-11-05T14:07:43.045Z,7.96
2022-11-05T14:08:44.783Z,8
2022-11-05T14:09:46.503Z,8.03
2022-11-05T14:10:48.255Z,8.07
2022-11-05T14:11:49.977Z,8.12
2022-11-05T14:12:51.701Z,8.16
2022-11-05T14:13:53.440Z,8.23